sensor_id;sensor_type;location;lat;lon;timestamp;pressure;altitude;pressure_sealevel;temperature;humidity
38197;BME280;26543;51.976;4.616;2022-12-24T00:01:52;53204.63;;;-140.72;100.00
38197;BME280;26543;51.976;4.616;2022-12-24T00:04:18;53235.06;;;-140.72;100.00
38197;BME280;26543;51.976;4.616;2022-12-24T00:06:43;53247.25;;;-140.72;100.00
38197;BME280;26543;51.976;4.616;2022-12-24T00:09:08;53186.34;;;-140.72;100.00
38197;BME280;26543;51.976;4.616;2022-12-24T00:11:34;53210.72;;;-140.72;100.00
38197;BME280;26543;51.976;4.616;2022-12-24T00:13:59;53182.28;;;-140.72;100.00
38197;BME280;26543;51.976;4.616;2022-12-24T00:16:25;53194.47;;;-140.72;100.00
38197;BME280;26543;51.976;4.616;2022-12-24T00:18:50;53226.94;;;-140.72;100.00
38197;BME280;26543;51.976;4.616;2022-12-24T00:21:15;53228.97;;;-140.72;100.00
38197;BME280;26543;51.976;4.616;2022-12-24T00:23:41;53210.72;;;-140.72;100.00
38197;BME280;26543;51.976;4.616;2022-12-24T00:26:07;53218.81;;;-140.72;100.00
38197;BME280;26543;51.976;4.616;2022-12-24T00:28:32;53192.44;;;-140.72;100.00
38197;BME280;26543;51.976;4.616;2022-12-24T00:30:57;53231.00;;;-140.72;100.00
38197;BME280;26543;51.976;4.616;2022-12-24T00:33:23;53267.53;;;-140.72;100.00
38197;BME280;26543;51.976;4.616;2022-12-24T00:35:50;53269.56;;;-140.72;100.00
38197;BME280;26543;51.976;4.616;2022-12-24T00:38:16;53226.94;;;-140.72;100.00
38197;BME280;26543;51.976;4.616;2022-12-24T00:40:41;53210.72;;;-140.72;100.00
38197;BME280;26543;51.976;4.616;2022-12-24T00:43:06;53226.94;;;-140.72;100.00
38197;BME280;26543;51.976;4.616;2022-12-24T00:45:32;53231.00;;;-140.72;100.00
38197;BME280;26543;51.976;4.616;2022-12-24T00:47:57;53210.72;;;-140.72;100.00
38197;BME280;26543;51.976;4.616;2022-12-24T00:50:22;53245.22;;;-140.72;100.00
38197;BME280;26543;51.976;4.616;2022-12-24T00:52:48;53202.59;;;-140.72;100.00
38197;BME280;26543;51.976;4.616;2022-12-24T00:55:13;53237.09;;;-140.72;100.00
38197;BME280;26543;51.976;4.616;2022-12-24T00:57:41;53231.00;;;-140.72;100.00
38197;BME280;26543;51.976;4.616;2022-12-24T01:00:07;53247.25;;;-140.72;100.00
38197;BME280;26543;51.976;4.616;2022-12-24T01:02:36;53212.75;;;-140.72;100.00
38197;BME280;26543;51.976;4.616;2022-12-24T01:05:04;53249.28;;;-140.72;100.00
38197;BME280;26543;51.976;4.616;2022-12-24T01:07:41;53214.78;;;-140.72;100.00
38197;BME280;26543;51.976;4.616;2022-12-24T01:10:09;53231.00;;;-140.72;100.00
38197;BME280;26543;51.976;4.616;2022-12-24T01:12:44;53212.75;;;-140.72;100.00
38197;BME280;26543;51.976;4.616;2022-12-24T01:15:11;53206.66;;;-140.72;100.00
38197;BME280;26543;51.976;4.616;2022-12-24T01:17:39;53180.25;;;-140.72;100.00
38197;BME280;26543;51.976;4.616;2022-12-24T01:20:06;53235.06;;;-140.72;100.00
38197;BME280;26543;51.976;4.616;2022-12-24T01:22:33;53212.75;;;-140.72;100.00
38197;BME280;26543;51.976;4.616;2022-12-24T01:24:58;53231.00;;;-140.72;100.00
38197;BME280;26543;51.976;4.616;2022-12-24T01:27:24;53239.13;;;-140.72;100.00
38197;BME280;26543;51.976;4.616;2022-12-24T01:29:49;53214.78;;;-140.72;100.00
38197;BME280;26543;51.976;4.616;2022-12-24T01:32:15;53210.72;;;-140.72;100.00
38197;BME280;26543;51.976;4.616;2022-12-24T01:34:40;53206.66;;;-140.72;100.00
38197;BME280;26543;51.976;4.616;2022-12-24T01:37:06;53271.59;;;-140.72;100.00
38197;BME280;26543;51.976;4.616;2022-12-24T01:39:31;53247.25;;;-140.72;100.00
38197;BME280;26543;51.976;4.616;2022-12-24T01:42:00;53198.53;;;-140.72;100.00
38197;BME280;26543;51.976;4.616;2022-12-24T01:44:47;53235.06;;;-140.72;100.00
38197;BME280;26543;51.976;4.616;2022-12-24T01:47:24;53251.31;;;-140.72;100.00
38197;BME280;26543;51.976;4.616;2022-12-24T01:52:22;53231.00;;;-140.72;100.00
38197;BME280;26543;51.976;4.616;2022-12-24T01:54:51;53241.16;;;-140.72;100.00
38197;BME280;26543;51.976;4.616;2022-12-24T01:57:29;53218.81;;;-140.72;100.00
38197;BME280;26543;51.976;4.616;2022-12-24T01:59:59;53245.22;;;-140.72;100.00
38197;BME280;26543;51.976;4.616;2022-12-24T02:02:26;53251.31;;;-140.72;100.00
38197;BME280;26543;51.976;4.616;2022-12-24T02:05:08;53233.03;;;-140.72;100.00
38197;BME280;26543;51.976;4.616;2022-12-24T02:07:36;53239.13;;;-140.72;100.00
38197;BME280;26543;51.976;4.616;2022-12-24T02:10:03;53198.53;;;-140.72;100.00
38197;BME280;26543;51.976;4.616;2022-12-24T02:12:31;53243.19;;;-140.72;100.00
38197;BME280;26543;51.976;4.616;2022-12-24T02:14:59;53216.78;;;-140.72;100.00
38197;BME280;26543;51.976;4.616;2022-12-24T02:26:06;53196.50;;;-140.72;100.00
38197;BME280;26543;51.976;4.616;2022-12-24T02:32:01;53239.13;;;-140.72;100.00
38197;BME280;26543;51.976;4.616;2022-12-24T02:34:35;53253.31;;;-140.72;100.00
38197;BME280;26543;51.976;4.616;2022-12-24T02:39:56;53218.81;;;-140.72;100.00
38197;BME280;26543;51.976;4.616;2022-12-24T02:42:29;53233.03;;;-140.72;100.00
38197;BME280;26543;51.976;4.616;2022-12-24T02:47:26;53206.66;;;-140.72;100.00
38197;BME280;26543;51.976;4.616;2022-12-24T02:49:54;53231.00;;;-140.72;100.00
38197;BME280;26543;51.976;4.616;2022-12-24T02:52:37;53222.88;;;-140.72;100.00
38197;BME280;26543;51.976;4.616;2022-12-24T02:58:25;53206.66;;;-140.72;100.00
38197;BME280;26543;51.976;4.616;2022-12-24T03:01:02;53218.81;;;-140.72;100.00
38197;BME280;26543;51.976;4.616;2022-12-24T03:06:28;53216.78;;;-140.72;100.00
38197;BME280;26543;51.976;4.616;2022-12-24T03:09:37;53263.47;;;-140.72;100.00
38197;BME280;26543;51.976;4.616;2022-12-24T03:12:03;53231.00;;;-140.72;100.00
38197;BME280;26543;51.976;4.616;2022-12-24T03:14:32;53237.09;;;-140.72;100.00
38197;BME280;26543;51.976;4.616;2022-12-24T03:16:59;53259.41;;;-140.72;100.00
38197;BME280;26543;51.976;4.616;2022-12-24T03:19:26;53235.06;;;-140.72;100.00
38197;BME280;26543;51.976;4.616;2022-12-24T03:21:54;53237.09;;;-140.72;100.00
38197;BME280;26543;51.976;4.616;2022-12-24T03:24:20;53226.94;;;-140.72;100.00
38197;BME280;26543;51.976;4.616;2022-12-24T03:26:46;53220.84;;;-140.72;100.00
38197;BME280;26543;51.976;4.616;2022-12-24T03:29:12;53218.81;;;-140.72;100.00
38197;BME280;26543;51.976;4.616;2022-12-24T03:31:48;53190.41;;;-140.72;100.00
38197;BME280;26543;51.976;4.616;2022-12-24T03:34:15;53235.06;;;-140.72;100.00
38197;BME280;26543;51.976;4.616;2022-12-24T03:36:44;53226.94;;;-140.72;100.00
38197;BME280;26543;51.976;4.616;2022-12-24T03:39:13;53190.41;;;-140.72;100.00
38197;BME280;26543;51.976;4.616;2022-12-24T03:41:38;53182.28;;;-140.72;100.00
38197;BME280;26543;51.976;4.616;2022-12-24T03:44:04;53235.06;;;-140.72;100.00
38197;BME280;26543;51.976;4.616;2022-12-24T03:46:29;53237.09;;;-140.72;100.00
38197;BME280;26543;51.976;4.616;2022-12-24T03:48:55;53216.78;;;-140.72;100.00
38197;BME280;26543;51.976;4.616;2022-12-24T03:51:22;53180.25;;;-140.72;100.00
38197;BME280;26543;51.976;4.616;2022-12-24T03:53:48;53202.59;;;-140.72;100.00
38197;BME280;26543;51.976;4.616;2022-12-24T03:56:15;53204.63;;;-140.72;100.00
38197;BME280;26543;51.976;4.616;2022-12-24T03:58:41;53226.94;;;-140.72;100.00
38197;BME280;26543;51.976;4.616;2022-12-24T04:01:06;53247.25;;;-140.72;100.00
38197;BME280;26543;51.976;4.616;2022-12-24T04:03:31;53206.66;;;-140.72;100.00
38197;BME280;26543;51.976;4.616;2022-12-24T04:06:05;53237.09;;;-140.72;100.00
38197;BME280;26543;51.976;4.616;2022-12-24T04:08:31;53233.03;;;-140.72;100.00
38197;BME280;26543;51.976;4.616;2022-12-24T04:10:56;53192.44;;;-140.72;100.00
38197;BME280;26543;51.976;4.616;2022-12-24T04:13:22;53239.13;;;-140.72;100.00
38197;BME280;26543;51.976;4.616;2022-12-24T04:16:05;53202.59;;;-140.72;100.00
38197;BME280;26543;51.976;4.616;2022-12-24T04:18:34;53241.16;;;-140.72;100.00
38197;BME280;26543;51.976;4.616;2022-12-24T04:21:00;53214.78;;;-140.72;100.00
38197;BME280;26543;51.976;4.616;2022-12-24T04:23:25;53237.09;;;-140.72;100.00
38197;BME280;26543;51.976;4.616;2022-12-24T04:25:51;53231.00;;;-140.72;100.00
38197;BME280;26543;51.976;4.616;2022-12-24T04:28:16;53206.66;;;-140.72;100.00
38197;BME280;26543;51.976;4.616;2022-12-24T04:30:42;53275.66;;;-140.72;100.00
38197;BME280;26543;51.976;4.616;2022-12-24T04:33:09;53237.09;;;-140.72;100.00
38197;BME280;26543;51.976;4.616;2022-12-24T04:35:39;53204.63;;;-140.72;100.00
38197;BME280;26543;51.976;4.616;2022-12-24T04:38:06;53257.38;;;-140.72;100.00
38197;BME280;26543;51.976;4.616;2022-12-24T04:40:31;53214.78;;;-140.72;100.00
38197;BME280;26543;51.976;4.616;2022-12-24T04:42:57;53231.00;;;-140.72;100.00
38197;BME280;26543;51.976;4.616;2022-12-24T04:45:22;53226.94;;;-140.72;100.00
38197;BME280;26543;51.976;4.616;2022-12-24T04:47:50;53200.56;;;-140.72;100.00
38197;BME280;26543;51.976;4.616;2022-12-24T04:50:15;53214.78;;;-140.72;100.00
38197;BME280;26543;51.976;4.616;2022-12-24T04:52:41;53235.06;;;-140.72;100.00
38197;BME280;26543;51.976;4.616;2022-12-24T04:55:06;53186.34;;;-140.72;100.00
38197;BME280;26543;51.976;4.616;2022-12-24T04:57:33;53202.59;;;-140.72;100.00
38197;BME280;26543;51.976;4.616;2022-12-24T05:00:00;53255.34;;;-140.72;100.00
38197;BME280;26543;51.976;4.616;2022-12-24T05:02:25;53196.50;;;-140.72;100.00
38197;BME280;26543;51.976;4.616;2022-12-24T05:04:51;53198.53;;;-140.72;100.00
38197;BME280;26543;51.976;4.616;2022-12-24T05:07:22;53198.53;;;-140.72;100.00
38197;BME280;26543;51.976;4.616;2022-12-24T05:09:47;53237.09;;;-140.72;100.00
38197;BME280;26543;51.976;4.616;2022-12-24T05:12:13;53233.03;;;-140.72;100.00
38197;BME280;26543;51.976;4.616;2022-12-24T05:14:39;53186.34;;;-140.72;100.00
38197;BME280;26543;51.976;4.616;2022-12-24T05:17:04;53186.34;;;-140.72;100.00
38197;BME280;26543;51.976;4.616;2022-12-24T05:19:29;53206.66;;;-140.72;100.00
38197;BME280;26543;51.976;4.616;2022-12-24T05:21:55;53222.88;;;-140.72;100.00
38197;BME280;26543;51.976;4.616;2022-12-24T05:24:39;53159.97;;;-140.72;100.00
38197;BME280;26543;51.976;4.616;2022-12-24T05:27:23;53202.59;;;-140.72;100.00
38197;BME280;26543;51.976;4.616;2022-12-24T05:29:48;53226.94;;;-140.72;100.00
38197;BME280;26543;51.976;4.616;2022-12-24T05:32:13;53226.94;;;-140.72;100.00
38197;BME280;26543;51.976;4.616;2022-12-24T05:34:39;53210.72;;;-140.72;100.00
38197;BME280;26543;51.976;4.616;2022-12-24T05:37:04;53222.88;;;-140.72;100.00
38197;BME280;26543;51.976;4.616;2022-12-24T05:39:29;53188.38;;;-140.72;100.00
38197;BME280;26543;51.976;4.616;2022-12-24T05:41:55;53198.53;;;-140.72;100.00
38197;BME280;26543;51.976;4.616;2022-12-24T05:44:20;53196.50;;;-140.72;100.00
38197;BME280;26543;51.976;4.616;2022-12-24T05:46:45;53226.94;;;-140.72;100.00
38197;BME280;26543;51.976;4.616;2022-12-24T05:49:11;53214.78;;;-140.72;100.00
38197;BME280;26543;51.976;4.616;2022-12-24T05:51:36;53231.00;;;-140.72;100.00
38197;BME280;26543;51.976;4.616;2022-12-24T05:54:04;53188.38;;;-140.72;100.00
38197;BME280;26543;51.976;4.616;2022-12-24T05:56:29;53202.59;;;-140.72;100.00
38197;BME280;26543;51.976;4.616;2022-12-24T05:58:55;53218.81;;;-140.72;100.00
38197;BME280;26543;51.976;4.616;2022-12-24T06:01:21;53192.44;;;-140.72;100.00
38197;BME280;26543;51.976;4.616;2022-12-24T06:03:50;53204.63;;;-140.72;100.00
38197;BME280;26543;51.976;4.616;2022-12-24T06:06:21;53210.72;;;-140.72;100.00
38197;BME280;26543;51.976;4.616;2022-12-24T06:08:49;53180.25;;;-140.72;100.00
38197;BME280;26543;51.976;4.616;2022-12-24T06:11:17;53190.41;;;-140.72;100.00
38197;BME280;26543;51.976;4.616;2022-12-24T06:13:43;53218.81;;;-140.72;100.00
38197;BME280;26543;51.976;4.616;2022-12-24T06:16:15;53251.31;;;-140.72;100.00
38197;BME280;26543;51.976;4.616;2022-12-24T06:18:41;53198.53;;;-140.72;100.00
38197;BME280;26543;51.976;4.616;2022-12-24T06:21:08;53235.06;;;-140.72;100.00
38197;BME280;26543;51.976;4.616;2022-12-24T06:23:36;53206.66;;;-140.72;100.00
38197;BME280;26543;51.976;4.616;2022-12-24T06:26:03;53257.38;;;-140.72;100.00
38197;BME280;26543;51.976;4.616;2022-12-24T06:28:30;53188.38;;;-140.72;100.00
38197;BME280;26543;51.976;4.616;2022-12-24T06:30:56;53253.31;;;-140.72;100.00
38197;BME280;26543;51.976;4.616;2022-12-24T06:33:23;53204.63;;;-140.72;100.00
38197;BME280;26543;51.976;4.616;2022-12-24T06:35:49;53214.78;;;-140.72;100.00
38197;BME280;26543;51.976;4.616;2022-12-24T06:38:14;53281.75;;;-140.72;100.00
38197;BME280;26543;51.976;4.616;2022-12-24T06:40:41;53243.19;;;-140.72;100.00
38197;BME280;26543;51.976;4.616;2022-12-24T06:43:07;53231.00;;;-140.72;100.00
38197;BME280;26543;51.976;4.616;2022-12-24T06:45:33;53257.38;;;-140.72;100.00
38197;BME280;26543;51.976;4.616;2022-12-24T06:47:59;53251.31;;;-140.72;100.00
38197;BME280;26543;51.976;4.616;2022-12-24T06:50:25;53267.53;;;-140.72;100.00
38197;BME280;26543;51.976;4.616;2022-12-24T06:52:50;53231.00;;;-140.72;100.00
38197;BME280;26543;51.976;4.616;2022-12-24T06:55:16;53237.09;;;-140.72;100.00
38197;BME280;26543;51.976;4.616;2022-12-24T06:57:41;53265.50;;;-140.72;100.00
38197;BME280;26543;51.976;4.616;2022-12-24T07:00:08;53231.00;;;-140.72;100.00
38197;BME280;26543;51.976;4.616;2022-12-24T07:02:33;53247.25;;;-140.72;100.00
38197;BME280;26543;51.976;4.616;2022-12-24T07:04:59;53241.16;;;-140.72;100.00
38197;BME280;26543;51.976;4.616;2022-12-24T07:07:24;53202.59;;;-140.72;100.00
38197;BME280;26543;51.976;4.616;2022-12-24T07:09:50;53224.91;;;-140.72;100.00
38197;BME280;26543;51.976;4.616;2022-12-24T07:12:15;53259.41;;;-140.72;100.00
38197;BME280;26543;51.976;4.616;2022-12-24T07:14:44;53259.41;;;-140.72;100.00
38197;BME280;26543;51.976;4.616;2022-12-24T07:17:09;53243.19;;;-140.72;100.00
38197;BME280;26543;51.976;4.616;2022-12-24T07:19:35;53243.19;;;-140.72;100.00
38197;BME280;26543;51.976;4.616;2022-12-24T07:22:04;53275.66;;;-140.72;100.00
38197;BME280;26543;51.976;4.616;2022-12-24T07:24:29;53237.09;;;-140.72;100.00
38197;BME280;26543;51.976;4.616;2022-12-24T07:26:55;53263.47;;;-140.72;100.00
38197;BME280;26543;51.976;4.616;2022-12-24T07:29:23;53267.53;;;-140.72;100.00
38197;BME280;26543;51.976;4.616;2022-12-24T07:31:51;53202.59;;;-140.72;100.00
38197;BME280;26543;51.976;4.616;2022-12-24T07:34:17;53245.22;;;-140.72;100.00
38197;BME280;26543;51.976;4.616;2022-12-24T07:36:42;53287.84;;;-140.72;100.00
38197;BME280;26543;51.976;4.616;2022-12-24T07:39:07;53226.94;;;-140.72;100.00
38197;BME280;26543;51.976;4.616;2022-12-24T07:41:35;53228.97;;;-140.72;100.00
38197;BME280;26543;51.976;4.616;2022-12-24T07:44:01;53218.81;;;-140.72;100.00
38197;BME280;26543;51.976;4.616;2022-12-24T07:46:26;53249.28;;;-140.72;100.00
38197;BME280;26543;51.976;4.616;2022-12-24T07:48:51;53206.66;;;-140.72;100.00
38197;BME280;26543;51.976;4.616;2022-12-24T07:51:17;53255.34;;;-140.72;100.00
38197;BME280;26543;51.976;4.616;2022-12-24T07:53:42;53206.66;;;-140.72;100.00
38197;BME280;26543;51.976;4.616;2022-12-24T07:56:13;53235.06;;;-140.72;100.00
38197;BME280;26543;51.976;4.616;2022-12-24T07:58:39;53214.78;;;-140.72;100.00
38197;BME280;26543;51.976;4.616;2022-12-24T08:01:04;53235.06;;;-140.72;100.00
38197;BME280;26543;51.976;4.616;2022-12-24T08:03:33;53214.78;;;-140.72;100.00
38197;BME280;26543;51.976;4.616;2022-12-24T08:05:58;53287.84;;;-140.72;100.00
38197;BME280;26543;51.976;4.616;2022-12-24T08:08:24;53251.31;;;-140.72;100.00
38197;BME280;26543;51.976;4.616;2022-12-24T08:10:50;53228.97;;;-140.72;100.00
38197;BME280;26543;51.976;4.616;2022-12-24T08:13:16;53241.16;;;-140.72;100.00
38197;BME280;26543;51.976;4.616;2022-12-24T08:15:42;53216.78;;;-140.72;100.00
38197;BME280;26543;51.976;4.616;2022-12-24T08:18:08;53253.31;;;-140.72;100.00
38197;BME280;26543;51.976;4.616;2022-12-24T08:20:37;53239.13;;;-140.72;100.00
38197;BME280;26543;51.976;4.616;2022-12-24T08:23:02;53200.56;;;-140.72;100.00
38197;BME280;26543;51.976;4.616;2022-12-24T08:25:28;53241.16;;;-140.72;100.00
38197;BME280;26543;51.976;4.616;2022-12-24T08:27:53;53210.72;;;-140.72;100.00
38197;BME280;26543;51.976;4.616;2022-12-24T08:30:18;53251.31;;;-140.72;100.00
38197;BME280;26543;51.976;4.616;2022-12-24T08:32:44;53231.00;;;-140.72;100.00
38197;BME280;26543;51.976;4.616;2022-12-24T08:35:09;53247.25;;;-140.72;100.00
38197;BME280;26543;51.976;4.616;2022-12-24T08:37:34;53208.69;;;-140.72;100.00
38197;BME280;26543;51.976;4.616;2022-12-24T08:40:03;53210.72;;;-140.72;100.00
38197;BME280;26543;51.976;4.616;2022-12-24T08:42:28;53216.78;;;-140.72;100.00
38197;BME280;26543;51.976;4.616;2022-12-24T08:44:54;53210.72;;;-140.72;100.00
38197;BME280;26543;51.976;4.616;2022-12-24T08:47:19;53239.13;;;-140.72;100.00
38197;BME280;26543;51.976;4.616;2022-12-24T08:49:47;53214.78;;;-140.72;100.00
38197;BME280;26543;51.976;4.616;2022-12-24T08:52:15;53198.53;;;-140.72;100.00
38197;BME280;26543;51.976;4.616;2022-12-24T08:54:40;53202.59;;;-140.72;100.00
38197;BME280;26543;51.976;4.616;2022-12-24T08:57:05;53188.38;;;-140.72;100.00
38197;BME280;26543;51.976;4.616;2022-12-24T08:59:31;53210.72;;;-140.72;100.00
38197;BME280;26543;51.976;4.616;2022-12-24T09:01:56;53192.44;;;-140.72;100.00
38197;BME280;26543;51.976;4.616;2022-12-24T09:04:22;53198.53;;;-140.72;100.00
38197;BME280;26543;51.976;4.616;2022-12-24T09:06:47;53178.22;;;-140.72;100.00
38197;BME280;26543;51.976;4.616;2022-12-24T09:09:12;53182.28;;;-140.72;100.00
38197;BME280;26543;51.976;4.616;2022-12-24T09:11:38;53190.41;;;-140.72;100.00
38197;BME280;26543;51.976;4.616;2022-12-24T09:14:03;53228.97;;;-140.72;100.00
38197;BME280;26543;51.976;4.616;2022-12-24T09:16:29;53214.78;;;-140.72;100.00
38197;BME280;26543;51.976;4.616;2022-12-24T09:18:55;53198.53;;;-140.72;100.00
38197;BME280;26543;51.976;4.616;2022-12-24T09:21:21;53235.06;;;-140.72;100.00
38197;BME280;26543;51.976;4.616;2022-12-24T09:23:47;53198.53;;;-140.72;100.00
38197;BME280;26543;51.976;4.616;2022-12-24T09:26:21;53210.72;;;-140.72;100.00
38197;BME280;26543;51.976;4.616;2022-12-24T09:28:48;53218.81;;;-140.72;100.00
38197;BME280;26543;51.976;4.616;2022-12-24T09:31:13;53220.84;;;-140.72;100.00
38197;BME280;26543;51.976;4.616;2022-12-24T09:33:40;53231.00;;;-140.72;100.00
38197;BME280;26543;51.976;4.616;2022-12-24T09:36:06;53190.41;;;-140.72;100.00
38197;BME280;26543;51.976;4.616;2022-12-24T09:38:32;53192.44;;;-140.72;100.00
38197;BME280;26543;51.976;4.616;2022-12-24T09:40:59;53178.22;;;-140.72;100.00
38197;BME280;26543;51.976;4.616;2022-12-24T09:43:27;53206.66;;;-140.72;100.00
38197;BME280;26543;51.976;4.616;2022-12-24T09:48:45;53194.47;;;-140.72;100.00
38197;BME280;26543;51.976;4.616;2022-12-24T09:51:29;53170.13;;;-140.72;100.00
38197;BME280;26543;51.976;4.616;2022-12-24T09:56:35;53164.03;;;-140.72;100.00
38197;BME280;26543;51.976;4.616;2022-12-24T09:59:04;53180.25;;;-140.72;100.00
38197;BME280;26543;51.976;4.616;2022-12-24T10:01:31;53206.66;;;-140.72;100.00
38197;BME280;26543;51.976;4.616;2022-12-24T10:04:01;53186.34;;;-140.72;100.00
38197;BME280;26543;51.976;4.616;2022-12-24T10:11:53;53147.78;;;-140.72;100.00
38197;BME280;26543;51.976;4.616;2022-12-24T10:17:12;53139.69;;;-140.72;100.00
38197;BME280;26543;51.976;4.616;2022-12-24T10:19:56;53204.63;;;-140.72;100.00
38197;BME280;26543;51.976;4.616;2022-12-24T10:23:07;53159.97;;;-140.72;100.00
38197;BME280;26543;51.976;4.616;2022-12-24T10:28:29;53180.25;;;-140.72;100.00
38197;BME280;26543;51.976;4.616;2022-12-24T10:30:59;53192.44;;;-140.72;100.00
38197;BME280;26543;51.976;4.616;2022-12-24T10:33:31;53162.00;;;-140.72;100.00
38197;BME280;26543;51.976;4.616;2022-12-24T10:35:59;53155.91;;;-140.72;100.00
38197;BME280;26543;51.976;4.616;2022-12-24T10:38:24;53192.44;;;-140.72;100.00
38197;BME280;26543;51.976;4.616;2022-12-24T10:40:53;53174.19;;;-140.72;100.00
38197;BME280;26543;51.976;4.616;2022-12-24T10:43:25;53149.81;;;-140.72;100.00
38197;BME280;26543;51.976;4.616;2022-12-24T10:45:56;53178.22;;;-140.72;100.00
38197;BME280;26543;51.976;4.616;2022-12-24T10:48:38;53190.41;;;-140.72;100.00
38197;BME280;26543;51.976;4.616;2022-12-24T10:51:12;53190.41;;;-140.72;100.00
38197;BME280;26543;51.976;4.616;2022-12-24T10:54:00;53174.19;;;-140.72;100.00
38197;BME280;26543;51.976;4.616;2022-12-24T10:56:30;53155.91;;;-140.72;100.00
38197;BME280;26543;51.976;4.616;2022-12-24T10:58:56;53166.06;;;-140.72;100.00
38197;BME280;26543;51.976;4.616;2022-12-24T11:01:43;53174.19;;;-140.72;100.00
38197;BME280;26543;51.976;4.616;2022-12-24T11:04:19;53162.00;;;-140.72;100.00
38197;BME280;26543;51.976;4.616;2022-12-24T11:07:02;53137.66;;;-140.72;100.00
38197;BME280;26543;51.976;4.616;2022-12-24T11:09:33;53149.81;;;-140.72;100.00
38197;BME280;26543;51.976;4.616;2022-12-24T11:12:00;53159.97;;;-140.72;100.00
38197;BME280;26543;51.976;4.616;2022-12-24T11:14:33;53159.97;;;-140.72;100.00
38197;BME280;26543;51.976;4.616;2022-12-24T11:16:59;53192.44;;;-140.72;100.00
38197;BME280;26543;51.976;4.616;2022-12-24T11:19:36;53174.19;;;-140.72;100.00
38197;BME280;26543;51.976;4.616;2022-12-24T11:22:07;53176.22;;;-140.72;100.00
38197;BME280;26543;51.976;4.616;2022-12-24T11:24:37;53174.19;;;-140.72;100.00
38197;BME280;26543;51.976;4.616;2022-12-24T11:29:46;53143.72;;;-140.72;100.00
38197;BME280;26543;51.976;4.616;2022-12-24T11:32:19;53157.94;;;-140.72;100.00
38197;BME280;26543;51.976;4.616;2022-12-24T11:34:45;53170.13;;;-140.72;100.00
38197;BME280;26543;51.976;4.616;2022-12-24T11:37:20;53157.94;;;-140.72;100.00
38197;BME280;26543;51.976;4.616;2022-12-24T11:39:54;53162.00;;;-140.72;100.00
38197;BME280;26543;51.976;4.616;2022-12-24T11:42:33;53149.81;;;-140.72;100.00
38197;BME280;26543;51.976;4.616;2022-12-24T11:45:01;53157.94;;;-140.72;100.00
38197;BME280;26543;51.976;4.616;2022-12-24T11:47:38;53125.47;;;-140.72;100.00
38197;BME280;26543;51.976;4.616;2022-12-24T11:50:30;53149.81;;;-140.72;100.00
38197;BME280;26543;51.976;4.616;2022-12-24T11:55:55;53145.75;;;-140.72;100.00
38197;BME280;26543;51.976;4.616;2022-12-24T11:58:40;53174.19;;;-140.72;100.00
38197;BME280;26543;51.976;4.616;2022-12-24T12:03:50;53143.72;;;-140.72;100.00
38197;BME280;26543;51.976;4.616;2022-12-24T12:09:20;53129.53;;;-140.72;100.00
38197;BME280;26543;51.976;4.616;2022-12-24T12:11:51;53145.75;;;-140.72;100.00
38197;BME280;26543;51.976;4.616;2022-12-24T12:14:23;53166.06;;;-140.72;100.00
38197;BME280;26543;51.976;4.616;2022-12-24T12:19:27;53117.34;;;-140.72;100.00
38197;BME280;26543;51.976;4.616;2022-12-24T12:21:54;53168.09;;;-140.72;100.00
38197;BME280;26543;51.976;4.616;2022-12-24T12:24:32;53119.38;;;-140.72;100.00
38197;BME280;26543;51.976;4.616;2022-12-24T12:29:43;53147.78;;;-140.72;100.00
38197;BME280;26543;51.976;4.616;2022-12-24T12:32:24;53129.53;;;-140.72;100.00
38197;BME280;26543;51.976;4.616;2022-12-24T12:34:58;53143.72;;;-140.72;100.00
38197;BME280;26543;51.976;4.616;2022-12-24T12:37:37;53137.66;;;-140.72;100.00
38197;BME280;26543;51.976;4.616;2022-12-24T12:40:12;53107.19;;;-140.72;100.00
38197;BME280;26543;51.976;4.616;2022-12-24T12:42:39;53133.59;;;-140.72;100.00
38197;BME280;26543;51.976;4.616;2022-12-24T12:45:55;53113.28;;;-140.72;100.00
38197;BME280;26543;51.976;4.616;2022-12-24T12:51:48;53072.69;;;-140.72;100.00
38197;BME280;26543;51.976;4.616;2022-12-24T12:54:30;53050.38;;;-140.72;100.00
38197;BME280;26543;51.976;4.616;2022-12-24T12:57:04;53105.19;;;-140.72;100.00
38197;BME280;26543;51.976;4.616;2022-12-24T13:02:41;53125.47;;;-140.72;100.00
38197;BME280;26543;51.976;4.616;2022-12-24T13:05:29;53095.03;;;-140.72;100.00
38197;BME280;26543;51.976;4.616;2022-12-24T13:10:56;53090.97;;;-140.72;100.00
38197;BME280;26543;51.976;4.616;2022-12-24T13:21:50;53117.34;;;-140.72;100.00
38197;BME280;26543;51.976;4.616;2022-12-24T13:24:21;53129.53;;;-140.72;100.00
38197;BME280;26543;51.976;4.616;2022-12-24T13:34:55;53162.00;;;-140.72;100.00
38197;BME280;26543;51.976;4.616;2022-12-24T13:42:45;53137.66;;;-140.72;100.00
38197;BME280;26543;51.976;4.616;2022-12-24T13:50:34;53149.81;;;-140.72;100.00
38197;BME280;26543;51.976;4.616;2022-12-24T13:53:00;53166.06;;;-140.72;100.00
38197;BME280;26543;51.976;4.616;2022-12-24T13:55:26;53145.75;;;-140.72;100.00
38197;BME280;26543;51.976;4.616;2022-12-24T14:05:47;53127.50;;;-140.72;100.00
38197;BME280;26543;51.976;4.616;2022-12-24T14:08:31;53125.47;;;-140.72;100.00
38197;BME280;26543;51.976;4.616;2022-12-24T14:16:07;53145.75;;;-140.72;100.00
38197;BME280;26543;51.976;4.616;2022-12-24T14:18:42;53178.22;;;-140.72;100.00
38197;BME280;26543;51.976;4.616;2022-12-24T14:21:17;53155.91;;;-140.72;100.00
38197;BME280;26543;51.976;4.616;2022-12-24T14:23:48;53141.69;;;-140.72;100.00
38197;BME280;26543;51.976;4.616;2022-12-24T14:26:19;53155.91;;;-140.72;100.00
38197;BME280;26543;51.976;4.616;2022-12-24T14:28:55;53149.81;;;-140.72;100.00